sensor_id;sensor_type;location;lat;lon;timestamp;P1;durP1;ratioP1;P2;durP2;ratioP2
8458;SDS011;4266;48.816;9.154;2022-08-19T00:01:20;16.45;;;14.73;;
8458;SDS011;4266;48.816;9.154;2022-08-19T00:03:46;17.30;;;15.10;;
8458;SDS011;4266;48.816;9.154;2022-08-19T00:06:12;16.95;;;15.07;;
8458;SDS011;4266;48.816;9.154;2022-08-19T00:08:38;16.85;;;15.00;;
8458;SDS011;4266;48.816;9.154;2022-08-19T00:11:04;16.83;;;15.23;;
8458;SDS011;4266;48.816;9.154;2022-08-19T00:13:30;16.55;;;14.85;;
8458;SDS011;4266;48.816;9.154;2022-08-19T00:15:55;16.52;;;14.82;;
8458;SDS011;4266;48.816;9.154;2022-08-19T00:18:21;16.23;;;14.82;;
8458;SDS011;4266;48.816;9.154;2022-08-19T00:20:47;15.73;;;14.23;;
8458;SDS011;4266;48.816;9.154;2022-08-19T00:23:12;15.68;;;14.10;;
8458;SDS011;4266;48.816;9.154;2022-08-19T00:25:38;16.12;;;14.63;;
8458;SDS011;4266;48.816;9.154;2022-08-19T00:28:05;16.23;;;14.80;;
8458;SDS011;4266;48.816;9.154;2022-08-19T00:30:32;16.12;;;14.63;;
8458;SDS011;4266;48.816;9.154;2022-08-19T00:32:57;16.83;;;15.13;;
8458;SDS011;4266;48.816;9.154;2022-08-19T00:35:23;16.27;;;14.65;;
8458;SDS011;4266;48.816;9.154;2022-08-19T00:37:49;15.98;;;14.38;;
8458;SDS011;4266;48.816;9.154;2022-08-19T00:40:16;17.08;;;15.35;;
8458;SDS011;4266;48.816;9.154;2022-08-19T00:42:40;15.60;;;14.10;;
8458;SDS011;4266;48.816;9.154;2022-08-19T00:45:09;16.27;;;14.68;;
8458;SDS011;4266;48.816;9.154;2022-08-19T00:47:38;17.48;;;15.68;;
8458;SDS011;4266;48.816;9.154;2022-08-19T00:50:04;15.63;;;14.13;;
8458;SDS011;4266;48.816;9.154;2022-08-19T00:52:32;16.73;;;15.13;;
8458;SDS011;4266;48.816;9.154;2022-08-19T00:54:57;17.10;;;15.18;;
8458;SDS011;4266;48.816;9.154;2022-08-19T00:57:28;16.17;;;14.68;;
8458;SDS011;4266;48.816;9.154;2022-08-19T00:59:52;17.23;;;15.63;;
8458;SDS011;4266;48.816;9.154;2022-08-19T01:02:17;17.27;;;15.55;;
8458;SDS011;4266;48.816;9.154;2022-08-19T01:04:42;16.48;;;14.87;;
8458;SDS011;4266;48.816;9.154;2022-08-19T01:07:08;17.00;;;15.30;;
8458;SDS011;4266;48.816;9.154;2022-08-19T01:09:34;18.30;;;15.30;;
8458;SDS011;4266;48.816;9.154;2022-08-19T01:12:00;16.95;;;15.30;;
8458;SDS011;4266;48.816;9.154;2022-08-19T01:14:26;16.50;;;15.00;;
8458;SDS011;4266;48.816;9.154;2022-08-19T01:16:53;18.95;;;15.70;;
8458;SDS011;4266;48.816;9.154;2022-08-19T01:19:21;16.67;;;15.10;;
8458;SDS011;4266;48.816;9.154;2022-08-19T01:21:47;21.25;;;16.02;;
8458;SDS011;4266;48.816;9.154;2022-08-19T01:24:10;16.73;;;15.13;;
8458;SDS011;4266;48.816;9.154;2022-08-19T01:26:39;16.62;;;15.00;;
8458;SDS011;4266;48.816;9.154;2022-08-19T01:29:03;17.48;;;15.77;;
8458;SDS011;4266;48.816;9.154;2022-08-19T01:31:30;17.40;;;15.30;;
8458;SDS011;4266;48.816;9.154;2022-08-19T01:33:57;18.27;;;15.75;;
8458;SDS011;4266;48.816;9.154;2022-08-19T01:36:28;18.85;;;16.10;;
8458;SDS011;4266;48.816;9.154;2022-08-19T01:38:56;18.48;;;16.60;;
8458;SDS011;4266;48.816;9.154;2022-08-19T01:41:21;18.50;;;16.55;;
8458;SDS011;4266;48.816;9.154;2022-08-19T01:43:47;18.08;;;16.17;;
8458;SDS011;4266;48.816;9.154;2022-08-19T01:46:13;18.27;;;16.37;;
8458;SDS011;4266;48.816;9.154;2022-08-19T01:48:39;18.80;;;16.62;;
8458;SDS011;4266;48.816;9.154;2022-08-19T01:51:05;17.62;;;15.98;;
8458;SDS011;4266;48.816;9.154;2022-08-19T01:53:31;18.50;;;16.70;;
8458;SDS011;4266;48.816;9.154;2022-08-19T01:55:56;18.23;;;16.40;;
8458;SDS011;4266;48.816;9.154;2022-08-19T01:58:24;18.05;;;16.20;;
8458;SDS011;4266;48.816;9.154;2022-08-19T02:00:48;19.30;;;17.10;;
8458;SDS011;4266;48.816;9.154;2022-08-19T02:03:14;19.58;;;17.48;;
8458;SDS011;4266;48.816;9.154;2022-08-19T02:05:40;19.60;;;17.70;;
8458;SDS011;4266;48.816;9.154;2022-08-19T02:08:06;20.00;;;17.85;;
8458;SDS011;4266;48.816;9.154;2022-08-19T02:10:32;19.27;;;17.37;;
8458;SDS011;4266;48.816;9.154;2022-08-19T02:12:58;19.02;;;17.12;;
8458;SDS011;4266;48.816;9.154;2022-08-19T02:15:24;20.20;;;18.12;;
8458;SDS011;4266;48.816;9.154;2022-08-19T02:17:50;20.80;;;18.62;;
8458;SDS011;4266;48.816;9.154;2022-08-19T02:20:16;21.37;;;19.00;;
8458;SDS011;4266;48.816;9.154;2022-08-19T02:22:42;20.70;;;18.50;;
8458;SDS011;4266;48.816;9.154;2022-08-19T02:25:08;21.92;;;19.67;;
8458;SDS011;4266;48.816;9.154;2022-08-19T02:27:35;21.55;;;19.25;;
8458;SDS011;4266;48.816;9.154;2022-08-19T02:30:01;20.50;;;18.35;;
8458;SDS011;4266;48.816;9.154;2022-08-19T02:32:26;21.27;;;19.08;;
8458;SDS011;4266;48.816;9.154;2022-08-19T02:34:52;22.52;;;18.20;;
8458;SDS011;4266;48.816;9.154;2022-08-19T02:37:18;22.25;;;19.62;;
8458;SDS011;4266;48.816;9.154;2022-08-19T02:39:50;22.25;;;18.95;;
8458;SDS011;4266;48.816;9.154;2022-08-19T02:42:15;21.77;;;19.58;;
8458;SDS011;4266;48.816;9.154;2022-08-19T02:44:41;23.73;;;20.35;;
8458;SDS011;4266;48.816;9.154;2022-08-19T02:47:07;22.30;;;19.98;;
8458;SDS011;4266;48.816;9.154;2022-08-19T02:49:32;23.42;;;20.92;;
8458;SDS011;4266;48.816;9.154;2022-08-19T02:51:58;24.15;;;21.60;;
8458;SDS011;4266;48.816;9.154;2022-08-19T02:54:24;25.62;;;21.17;;
8458;SDS011;4266;48.816;9.154;2022-08-19T02:56:49;22.85;;;20.40;;
8458;SDS011;4266;48.816;9.154;2022-08-19T02:59:15;23.17;;;20.80;;
8458;SDS011;4266;48.816;9.154;2022-08-19T03:01:41;24.00;;;21.50;;
8458;SDS011;4266;48.816;9.154;2022-08-19T03:04:08;25.08;;;22.17;;
8458;SDS011;4266;48.816;9.154;2022-08-19T03:06:35;25.62;;;21.77;;
8458;SDS011;4266;48.816;9.154;2022-08-19T03:08:59;23.77;;;21.30;;
8458;SDS011;4266;48.816;9.154;2022-08-19T03:11:26;23.30;;;20.80;;
8458;SDS011;4266;48.816;9.154;2022-08-19T03:13:50;26.50;;;22.15;;
8458;SDS011;4266;48.816;9.154;2022-08-19T03:16:17;24.17;;;21.50;;
8458;SDS011;4266;48.816;9.154;2022-08-19T03:18:42;24.27;;;21.77;;
8458;SDS011;4266;48.816;9.154;2022-08-19T03:21:09;26.08;;;22.42;;
8458;SDS011;4266;48.816;9.154;2022-08-19T03:23:34;25.48;;;22.83;;
8458;SDS011;4266;48.816;9.154;2022-08-19T03:26:03;25.45;;;22.75;;
8458;SDS011;4266;48.816;9.154;2022-08-19T03:28:26;24.50;;;21.87;;
8458;SDS011;4266;48.816;9.154;2022-08-19T03:30:55;24.45;;;21.85;;
8458;SDS011;4266;48.816;9.154;2022-08-19T03:33:19;25.60;;;22.90;;
8458;SDS011;4266;48.816;9.154;2022-08-19T03:35:45;25.62;;;22.80;;
8458;SDS011;4266;48.816;9.154;2022-08-19T03:38:10;26.52;;;23.73;;
8458;SDS011;4266;48.816;9.154;2022-08-19T03:40:36;27.13;;;24.20;;
8458;SDS011;4266;48.816;9.154;2022-08-19T03:43:02;26.05;;;23.33;;
8458;SDS011;4266;48.816;9.154;2022-08-19T03:45:27;25.17;;;22.58;;
8458;SDS011;4266;48.816;9.154;2022-08-19T03:47:54;27.25;;;23.98;;
8458;SDS011;4266;48.816;9.154;2022-08-19T03:50:19;26.48;;;23.73;;
8458;SDS011;4266;48.816;9.154;2022-08-19T03:52:48;28.05;;;25.02;;
8458;SDS011;4266;48.816;9.154;2022-08-19T03:55:13;26.60;;;23.83;;
8458;SDS011;4266;48.816;9.154;2022-08-19T03:57:38;29.25;;;24.75;;
8458;SDS011;4266;48.816;9.154;2022-08-19T04:00:05;27.42;;;24.40;;
8458;SDS011;4266;48.816;9.154;2022-08-19T04:02:32;30.40;;;26.33;;
8458;SDS011;4266;48.816;9.154;2022-08-19T04:04:57;28.58;;;25.55;;
8458;SDS011;4266;48.816;9.154;2022-08-19T04:07:23;28.95;;;24.83;;
8458;SDS011;4266;48.816;9.154;2022-08-19T04:09:49;28.48;;;25.55;;
8458;SDS011;4266;48.816;9.154;2022-08-19T04:12:14;30.02;;;25.77;;
8458;SDS011;4266;48.816;9.154;2022-08-19T04:14:40;30.25;;;25.80;;
8458;SDS011;4266;48.816;9.154;2022-08-19T04:17:07;29.65;;;25.17;;
8458;SDS011;4266;48.816;9.154;2022-08-19T04:19:33;28.20;;;24.98;;
8458;SDS011;4266;48.816;9.154;2022-08-19T04:21:58;28.65;;;25.55;;
8458;SDS011;4266;48.816;9.154;2022-08-19T04:24:24;28.70;;;25.48;;
8458;SDS011;4266;48.816;9.154;2022-08-19T04:26:50;29.60;;;25.52;;
8458;SDS011;4266;48.816;9.154;2022-08-19T04:29:19;28.12;;;25.12;;
8458;SDS011;4266;48.816;9.154;2022-08-19T04:31:42;28.98;;;25.95;;
8458;SDS011;4266;48.816;9.154;2022-08-19T04:34:08;28.67;;;25.75;;
8458;SDS011;4266;48.816;9.154;2022-08-19T04:36:35;27.67;;;24.77;;
8458;SDS011;4266;48.816;9.154;2022-08-19T04:39:02;28.75;;;25.67;;
8458;SDS011;4266;48.816;9.154;2022-08-19T04:41:25;29.45;;;25.62;;
8458;SDS011;4266;48.816;9.154;2022-08-19T04:43:57;26.95;;;24.15;;
8458;SDS011;4266;48.816;9.154;2022-08-19T04:46:23;28.50;;;25.45;;
8458;SDS011;4266;48.816;9.154;2022-08-19T04:48:48;27.30;;;24.48;;
8458;SDS011;4266;48.816;9.154;2022-08-19T04:51:14;27.90;;;24.75;;
8458;SDS011;4266;48.816;9.154;2022-08-19T04:53:40;28.67;;;24.55;;
8458;SDS011;4266;48.816;9.154;2022-08-19T04:56:10;28.75;;;25.60;;
8458;SDS011;4266;48.816;9.154;2022-08-19T04:58:35;27.95;;;24.98;;
8458;SDS011;4266;48.816;9.154;2022-08-19T05:01:01;26.12;;;23.42;;
8458;SDS011;4266;48.816;9.154;2022-08-19T05:03:26;28.35;;;24.42;;
8458;SDS011;4266;48.816;9.154;2022-08-19T05:05:53;27.73;;;24.30;;
8458;SDS011;4266;48.816;9.154;2022-08-19T05:08:19;33.88;;;24.48;;
8458;SDS011;4266;48.816;9.154;2022-08-19T05:10:45;26.80;;;24.08;;
8458;SDS011;4266;48.816;9.154;2022-08-19T05:13:10;27.80;;;23.80;;
8458;SDS011;4266;48.816;9.154;2022-08-19T05:15:35;27.62;;;23.95;;
8458;SDS011;4266;48.816;9.154;2022-08-19T05:18:01;26.60;;;23.70;;
8458;SDS011;4266;48.816;9.154;2022-08-19T05:20:47;27.08;;;24.05;;
8458;SDS011;4266;48.816;9.154;2022-08-19T05:23:19;28.00;;;24.52;;
8458;SDS011;4266;48.816;9.154;2022-08-19T05:25:45;28.42;;;25.20;;
8458;SDS011;4266;48.816;9.154;2022-08-19T05:28:11;27.65;;;24.75;;
8458;SDS011;4266;48.816;9.154;2022-08-19T05:30:37;27.83;;;24.90;;
8458;SDS011;4266;48.816;9.154;2022-08-19T05:33:03;30.00;;;25.25;;
8458;SDS011;4266;48.816;9.154;2022-08-19T05:35:28;27.27;;;24.17;;
8458;SDS011;4266;48.816;9.154;2022-08-19T05:37:54;27.95;;;24.92;;
8458;SDS011;4266;48.816;9.154;2022-08-19T05:40:20;26.05;;;23.33;;
8458;SDS011;4266;48.816;9.154;2022-08-19T05:42:45;28.52;;;25.45;;
8458;SDS011;4266;48.816;9.154;2022-08-19T05:45:12;28.52;;;25.33;;
8458;SDS011;4266;48.816;9.154;2022-08-19T05:47:38;26.75;;;23.90;;
8458;SDS011;4266;48.816;9.154;2022-08-19T05:50:04;26.87;;;24.02;;
8458;SDS011;4266;48.816;9.154;2022-08-19T05:52:31;28.38;;;25.40;;
8458;SDS011;4266;48.816;9.154;2022-08-19T05:54:56;28.42;;;24.65;;
8458;SDS011;4266;48.816;9.154;2022-08-19T05:57:23;27.17;;;24.37;;
8458;SDS011;4266;48.816;9.154;2022-08-19T05:59:48;26.25;;;23.55;;
8458;SDS011;4266;48.816;9.154;2022-08-19T06:02:14;28.70;;;24.37;;
8458;SDS011;4266;48.816;9.154;2022-08-19T06:04:39;28.67;;;23.55;;
8458;SDS011;4266;48.816;9.154;2022-08-19T06:07:06;22.10;;;19.73;;
8458;SDS011;4266;48.816;9.154;2022-08-19T06:09:31;23.15;;;20.80;;
8458;SDS011;4266;48.816;9.154;2022-08-19T06:11:58;22.70;;;20.05;;
8458;SDS011;4266;48.816;9.154;2022-08-19T06:14:24;17.90;;;16.08;;
8458;SDS011;4266;48.816;9.154;2022-08-19T06:16:49;18.40;;;16.60;;
8458;SDS011;4266;48.816;9.154;2022-08-19T06:19:15;23.45;;;20.52;;
8458;SDS011;4266;48.816;9.154;2022-08-19T06:21:41;22.92;;;20.52;;
8458;SDS011;4266;48.816;9.154;2022-08-19T06:24:08;18.95;;;16.80;;
8458;SDS011;4266;48.816;9.154;2022-08-19T06:26:34;24.20;;;21.40;;
8458;SDS011;4266;48.816;9.154;2022-08-19T06:28:59;21.77;;;19.62;;
8458;SDS011;4266;48.816;9.154;2022-08-19T06:31:26;22.95;;;17.23;;
8458;SDS011;4266;48.816;9.154;2022-08-19T06:33:51;18.17;;;16.33;;
8458;SDS011;4266;48.816;9.154;2022-08-19T06:36:21;22.35;;;19.92;;
8458;SDS011;4266;48.816;9.154;2022-08-19T06:38:47;18.45;;;16.70;;
8458;SDS011;4266;48.816;9.154;2022-08-19T06:41:12;24.90;;;22.33;;
8458;SDS011;4266;48.816;9.154;2022-08-19T06:43:38;24.60;;;22.13;;
8458;SDS011;4266;48.816;9.154;2022-08-19T06:46:04;25.70;;;23.00;;
8458;SDS011;4266;48.816;9.154;2022-08-19T06:48:30;25.98;;;23.45;;
8458;SDS011;4266;48.816;9.154;2022-08-19T06:50:57;26.10;;;23.45;;
8458;SDS011;4266;48.816;9.154;2022-08-19T06:53:22;26.52;;;23.92;;
8458;SDS011;4266;48.816;9.154;2022-08-19T06:55:49;26.05;;;23.35;;
8458;SDS011;4266;48.816;9.154;2022-08-19T06:58:14;26.12;;;23.42;;
8458;SDS011;4266;48.816;9.154;2022-08-19T07:00:40;26.60;;;23.83;;
8458;SDS011;4266;48.816;9.154;2022-08-19T07:03:06;26.30;;;23.70;;
8458;SDS011;4266;48.816;9.154;2022-08-19T07:05:32;28.52;;;24.15;;
8458;SDS011;4266;48.816;9.154;2022-08-19T07:07:58;26.85;;;24.15;;
8458;SDS011;4266;48.816;9.154;2022-08-19T07:10:23;26.60;;;24.05;;
8458;SDS011;4266;48.816;9.154;2022-08-19T07:12:49;29.17;;;26.08;;
8458;SDS011;4266;48.816;9.154;2022-08-19T07:15:15;27.52;;;24.33;;
8458;SDS011;4266;48.816;9.154;2022-08-19T07:17:41;25.80;;;23.20;;
8458;SDS011;4266;48.816;9.154;2022-08-19T07:20:07;30.75;;;24.37;;
8458;SDS011;4266;48.816;9.154;2022-08-19T07:22:34;26.73;;;23.95;;
8458;SDS011;4266;48.816;9.154;2022-08-19T07:24:59;26.95;;;23.87;;
8458;SDS011;4266;48.816;9.154;2022-08-19T07:27:25;27.40;;;24.60;;
8458;SDS011;4266;48.816;9.154;2022-08-19T07:29:51;26.75;;;24.00;;
8458;SDS011;4266;48.816;9.154;2022-08-19T07:32:19;26.05;;;23.35;;
8458;SDS011;4266;48.816;9.154;2022-08-19T07:34:45;25.65;;;23.00;;
8458;SDS011;4266;48.816;9.154;2022-08-19T07:37:10;27.15;;;23.48;;
8458;SDS011;4266;48.816;9.154;2022-08-19T07:39:36;26.98;;;23.40;;
8458;SDS011;4266;48.816;9.154;2022-08-19T07:42:03;26.48;;;23.48;;
8458;SDS011;4266;48.816;9.154;2022-08-19T07:44:27;25.80;;;23.30;;
8458;SDS011;4266;48.816;9.154;2022-08-19T07:46:54;26.02;;;23.00;;
8458;SDS011;4266;48.816;9.154;2022-08-19T07:49:19;24.87;;;22.37;;
8458;SDS011;4266;48.816;9.154;2022-08-19T07:51:47;24.92;;;22.33;;
8458;SDS011;4266;48.816;9.154;2022-08-19T07:54:13;24.65;;;22.25;;
8458;SDS011;4266;48.816;9.154;2022-08-19T07:56:38;23.15;;;20.77;;
8458;SDS011;4266;48.816;9.154;2022-08-19T07:59:04;24.70;;;22.17;;
8458;SDS011;4266;48.816;9.154;2022-08-19T08:01:30;25.08;;;22.48;;
8458;SDS011;4266;48.816;9.154;2022-08-19T08:03:57;23.55;;;21.25;;
8458;SDS011;4266;48.816;9.154;2022-08-19T08:06:28;23.58;;;21.08;;
8458;SDS011;4266;48.816;9.154;2022-08-19T08:09:01;23.52;;;21.02;;
8458;SDS011;4266;48.816;9.154;2022-08-19T08:11:32;23.95;;;20.55;;
8458;SDS011;4266;48.816;9.154;2022-08-19T08:13:58;23.25;;;20.83;;
8458;SDS011;4266;48.816;9.154;2022-08-19T08:16:23;23.60;;;21.20;;
8458;SDS011;4266;48.816;9.154;2022-08-19T08:18:49;22.33;;;19.98;;
8458;SDS011;4266;48.816;9.154;2022-08-19T08:21:15;28.83;;;20.35;;
8458;SDS011;4266;48.816;9.154;2022-08-19T08:23:40;23.33;;;20.92;;
8458;SDS011;4266;48.816;9.154;2022-08-19T08:26:06;22.75;;;20.35;;
8458;SDS011;4266;48.816;9.154;2022-08-19T08:28:32;23.23;;;19.67;;
8458;SDS011;4266;48.816;9.154;2022-08-19T08:30:59;22.33;;;20.02;;
8458;SDS011;4266;48.816;9.154;2022-08-19T08:33:26;22.58;;;20.42;;
8458;SDS011;4266;48.816;9.154;2022-08-19T08:35:51;21.65;;;19.20;;
8458;SDS011;4266;48.816;9.154;2022-08-19T08:38:17;25.83;;;20.83;;
8458;SDS011;4266;48.816;9.154;2022-08-19T08:40:45;21.00;;;19.02;;
8458;SDS011;4266;48.816;9.154;2022-08-19T08:43:14;22.60;;;20.23;;
8458;SDS011;4266;48.816;9.154;2022-08-19T08:45:38;29.08;;;21.35;;
8458;SDS011;4266;48.816;9.154;2022-08-19T08:48:02;25.27;;;21.33;;
8458;SDS011;4266;48.816;9.154;2022-08-19T08:50:29;26.33;;;20.37;;
8458;SDS011;4266;48.816;9.154;2022-08-19T08:52:53;24.27;;;20.00;;
8458;SDS011;4266;48.816;9.154;2022-08-19T08:55:20;23.08;;;20.88;;
8458;SDS011;4266;48.816;9.154;2022-08-19T08:57:52;22.98;;;20.40;;
8458;SDS011;4266;48.816;9.154;2022-08-19T09:00:20;22.67;;;20.37;;
8458;SDS011;4266;48.816;9.154;2022-08-19T09:02:44;22.83;;;20.48;;
8458;SDS011;4266;48.816;9.154;2022-08-19T09:05:10;25.52;;;20.45;;
8458;SDS011;4266;48.816;9.154;2022-08-19T09:07:41;21.73;;;19.60;;
8458;SDS011;4266;48.816;9.154;2022-08-19T09:10:10;21.17;;;19.17;;
8458;SDS011;4266;48.816;9.154;2022-08-19T09:12:53;24.52;;;19.17;;
8458;SDS011;4266;48.816;9.154;2022-08-19T09:15:34;21.52;;;19.20;;
8458;SDS011;4266;48.816;9.154;2022-08-19T09:17:59;20.55;;;18.27;;
8458;SDS011;4266;48.816;9.154;2022-08-19T09:20:25;21.60;;;19.27;;
8458;SDS011;4266;48.816;9.154;2022-08-19T09:22:51;19.27;;;17.42;;
8458;SDS011;4266;48.816;9.154;2022-08-19T09:25:19;19.65;;;17.85;;
8458;SDS011;4266;48.816;9.154;2022-08-19T09:27:43;19.20;;;17.20;;
8458;SDS011;4266;48.816;9.154;2022-08-19T09:30:11;20.77;;;18.48;;
8458;SDS011;4266;48.816;9.154;2022-08-19T09:32:36;19.65;;;17.55;;
8458;SDS011;4266;48.816;9.154;2022-08-19T09:35:01;19.17;;;17.02;;
8458;SDS011;4266;48.816;9.154;2022-08-19T09:37:28;20.73;;;17.00;;
8458;SDS011;4266;48.816;9.154;2022-08-19T09:39:55;19.12;;;15.77;;
8458;SDS011;4266;48.816;9.154;2022-08-19T09:42:22;18.00;;;16.25;;
8458;SDS011;4266;48.816;9.154;2022-08-19T09:44:47;18.62;;;15.95;;
8458;SDS011;4266;48.816;9.154;2022-08-19T09:47:13;17.35;;;15.57;;
8458;SDS011;4266;48.816;9.154;2022-08-19T09:49:39;17.08;;;15.30;;
8458;SDS011;4266;48.816;9.154;2022-08-19T09:52:06;18.90;;;15.15;;
8458;SDS011;4266;48.816;9.154;2022-08-19T09:54:31;15.38;;;14.00;;
8458;SDS011;4266;48.816;9.154;2022-08-19T09:56:58;16.20;;;14.70;;
8458;SDS011;4266;48.816;9.154;2022-08-19T09:59:24;15.93;;;14.30;;
8458;SDS011;4266;48.816;9.154;2022-08-19T10:01:50;16.55;;;14.43;;
8458;SDS011;4266;48.816;9.154;2022-08-19T10:04:16;15.50;;;14.05;;
8458;SDS011;4266;48.816;9.154;2022-08-19T10:06:42;15.95;;;14.45;;
8458;SDS011;4266;48.816;9.154;2022-08-19T10:09:09;14.73;;;13.32;;
8458;SDS011;4266;48.816;9.154;2022-08-19T10:11:34;16.27;;;14.57;;
8458;SDS011;4266;48.816;9.154;2022-08-19T10:14:01;14.90;;;13.40;;
8458;SDS011;4266;48.816;9.154;2022-08-19T10:16:26;14.73;;;13.27;;
8458;SDS011;4266;48.816;9.154;2022-08-19T10:18:52;15.73;;;13.73;;
8458;SDS011;4266;48.816;9.154;2022-08-19T10:21:20;16.65;;;13.73;;
8458;SDS011;4266;48.816;9.154;2022-08-19T10:23:48;15.23;;;13.57;;
8458;SDS011;4266;48.816;9.154;2022-08-19T10:26:15;15.25;;;13.18;;
8458;SDS011;4266;48.816;9.154;2022-08-19T10:28:38;13.62;;;12.35;;
8458;SDS011;4266;48.816;9.154;2022-08-19T10:31:06;14.38;;;12.88;;
8458;SDS011;4266;48.816;9.154;2022-08-19T10:33:33;13.32;;;12.13;;
8458;SDS011;4266;48.816;9.154;2022-08-19T10:35:59;14.05;;;12.70;;
8458;SDS011;4266;48.816;9.154;2022-08-19T10:38:23;13.88;;;12.60;;
8458;SDS011;4266;48.816;9.154;2022-08-19T10:40:49;14.90;;;12.20;;
8458;SDS011;4266;48.816;9.154;2022-08-19T10:43:15;13.20;;;12.00;;
8458;SDS011;4266;48.816;9.154;2022-08-19T10:45:42;12.65;;;11.52;;
8458;SDS011;4266;48.816;9.154;2022-08-19T10:48:09;12.52;;;11.32;;
8458;SDS011;4266;48.816;9.154;2022-08-19T10:50:36;14.10;;;11.30;;
8458;SDS011;4266;48.816;9.154;2022-08-19T10:53:07;11.65;;;10.57;;
8458;SDS011;4266;48.816;9.154;2022-08-19T10:55:33;12.30;;;10.02;;
8458;SDS011;4266;48.816;9.154;2022-08-19T10:58:15;11.35;;;10.25;;
8458;SDS011;4266;48.816;9.154;2022-08-19T11:00:40;11.77;;;10.60;;
8458;SDS011;4266;48.816;9.154;2022-08-19T11:03:06;15.38;;;10.43;;
8458;SDS011;4266;48.816;9.154;2022-08-19T11:05:31;11.10;;;10.00;;
8458;SDS011;4266;48.816;9.154;2022-08-19T11:07:58;10.35;;;9.35;;
8458;SDS011;4266;48.816;9.154;2022-08-19T11:10:24;10.90;;;9.90;;
8458;SDS011;4266;48.816;9.154;2022-08-19T11:12:50;11.00;;;9.38;;
8458;SDS011;4266;48.816;9.154;2022-08-19T11:15:16;10.38;;;9.32;;
8458;SDS011;4266;48.816;9.154;2022-08-19T11:17:42;11.00;;;9.85;;
8458;SDS011;4266;48.816;9.154;2022-08-19T11:20:08;9.70;;;8.68;;
8458;SDS011;4266;48.816;9.154;2022-08-19T11:22:35;10.45;;;9.15;;
8458;SDS011;4266;48.816;9.154;2022-08-19T11:25:01;10.27;;;9.07;;
8458;SDS011;4266;48.816;9.154;2022-08-19T11:27:26;9.63;;;8.80;;
8458;SDS011;4266;48.816;9.154;2022-08-19T11:29:53;9.32;;;8.45;;
8458;SDS011;4266;48.816;9.154;2022-08-19T11:32:19;9.65;;;8.75;;
8458;SDS011;4266;48.816;9.154;2022-08-19T11:34:45;9.82;;;8.93;;
8458;SDS011;4266;48.816;9.154;2022-08-19T11:37:11;9.27;;;8.40;;
8458;SDS011;4266;48.816;9.154;2022-08-19T11:39:36;9.00;;;8.23;;
8458;SDS011;4266;48.816;9.154;2022-08-19T11:42:03;10.88;;;9.18;;
8458;SDS011;4266;48.816;9.154;2022-08-19T11:44:28;11.20;;;9.27;;
8458;SDS011;4266;48.816;9.154;2022-08-19T11:46:54;9.25;;;8.35;;
8458;SDS011;4266;48.816;9.154;2022-08-19T11:49:19;9.40;;;8.70;;
8458;SDS011;4266;48.816;9.154;2022-08-19T11:51:45;9.93;;;8.10;;
8458;SDS011;4266;48.816;9.154;2022-08-19T11:54:11;9.27;;;8.45;;
8458;SDS011;4266;48.816;9.154;2022-08-19T11:56:37;9.55;;;8.57;;
8458;SDS011;4266;48.816;9.154;2022-08-19T11:59:03;8.85;;;8.05;;
8458;SDS011;4266;48.816;9.154;2022-08-19T12:01:29;10.00;;;9.13;;
8458;SDS011;4266;48.816;9.154;2022-08-19T12:03:55;9.68;;;8.77;;
8458;SDS011;4266;48.816;9.154;2022-08-19T12:06:22;9.68;;;8.77;;
8458;SDS011;4266;48.816;9.154;2022-08-19T12:08:46;9.18;;;8.27;;
8458;SDS011;4266;48.816;9.154;2022-08-19T12:11:12;8.82;;;7.95;;
8458;SDS011;4266;48.816;9.154;2022-08-19T12:13:37;9.27;;;8.55;;
8458;SDS011;4266;48.816;9.154;2022-08-19T12:16:09;10.65;;;9.43;;
8458;SDS011;4266;48.816;9.154;2022-08-19T12:18:34;9.50;;;8.75;;
8458;SDS011;4266;48.816;9.154;2022-08-19T12:21:00;11.55;;;9.30;;
8458;SDS011;4266;48.816;9.154;2022-08-19T12:23:26;9.93;;;9.07;;
8458;SDS011;4266;48.816;9.154;2022-08-19T12:25:52;9.38;;;8.57;;
8458;SDS011;4266;48.816;9.154;2022-08-19T12:28:18;9.98;;;9.15;;
8458;SDS011;4266;48.816;9.154;2022-08-19T12:30:43;9.82;;;8.93;;
8458;SDS011;4266;48.816;9.154;2022-08-19T12:33:09;9.15;;;8.20;;
8458;SDS011;4266;48.816;9.154;2022-08-19T12:35:38;12.40;;;9.40;;
8458;SDS011;4266;48.816;9.154;2022-08-19T12:38:01;10.23;;;9.32;;
8458;SDS011;4266;48.816;9.154;2022-08-19T12:40:27;9.68;;;8.77;;
8458;SDS011;4266;48.816;9.154;2022-08-19T12:42:54;9.02;;;8.27;;
8458;SDS011;4266;48.816;9.154;2022-08-19T12:45:20;9.23;;;8.43;;
8458;SDS011;4266;48.816;9.154;2022-08-19T12:47:46;11.15;;;8.48;;
8458;SDS011;4266;48.816;9.154;2022-08-19T12:50:12;9.98;;;9.15;;
8458;SDS011;4266;48.816;9.154;2022-08-19T12:52:38;8.98;;;8.18;;
8458;SDS011;4266;48.816;9.154;2022-08-19T12:55:04;9.80;;;8.73;;
8458;SDS011;4266;48.816;9.154;2022-08-19T12:57:31;8.60;;;8.00;;
8458;SDS011;4266;48.816;9.154;2022-08-19T13:00:07;9.02;;;8.20;;
8458;SDS011;4266;48.816;9.154;2022-08-19T13:02:36;9.45;;;8.45;;
8458;SDS011;4266;48.816;9.154;2022-08-19T13:05:01;8.60;;;7.93;;
8458;SDS011;4266;48.816;9.154;2022-08-19T13:07:27;9.40;;;8.52;;
8458;SDS011;4266;48.816;9.154;2022-08-19T13:09:53;9.20;;;8.40;;
8458;SDS011;4266;48.816;9.154;2022-08-19T13:12:19;8.60;;;7.90;;
8458;SDS011;4266;48.816;9.154;2022-08-19T13:14:45;15.95;;;12.90;;
8458;SDS011;4266;48.816;9.154;2022-08-19T13:17:11;15.27;;;13.80;;
8458;SDS011;4266;48.816;9.154;2022-08-19T13:19:37;15.63;;;13.90;;
8458;SDS011;4266;48.816;9.154;2022-08-19T13:22:03;13.82;;;12.40;;
8458;SDS011;4266;48.816;9.154;2022-08-19T13:24:29;15.35;;;13.73;;
8458;SDS011;4266;48.816;9.154;2022-08-19T13:26:55;15.27;;;13.68;;
8458;SDS011;4266;48.816;9.154;2022-08-19T13:29:21;14.68;;;13.23;;
8458;SDS011;4266;48.816;9.154;2022-08-19T13:31:53;16.15;;;14.55;;
8458;SDS011;4266;48.816;9.154;2022-08-19T13:34:27;18.80;;;16.27;;
8458;SDS011;4266;48.816;9.154;2022-08-19T13:36:51;19.52;;;17.62;;
8458;SDS011;4266;48.816;9.154;2022-08-19T13:39:16;22.42;;;18.35;;
8458;SDS011;4266;48.816;9.154;2022-08-19T13:41:43;20.98;;;18.77;;
8458;SDS011;4266;48.816;9.154;2022-08-19T13:44:08;21.75;;;19.55;;
8458;SDS011;4266;48.816;9.154;2022-08-19T13:46:34;25.58;;;20.62;;
8458;SDS011;4266;48.816;9.154;2022-08-19T13:48:59;24.55;;;22.13;;
8458;SDS011;4266;48.816;9.154;2022-08-19T13:51:25;26.30;;;23.62;;
8458;SDS011;4266;48.816;9.154;2022-08-19T13:53:52;27.77;;;25.05;;
8458;SDS011;4266;48.816;9.154;2022-08-19T13:56:18;30.98;;;25.48;;
8458;SDS011;4266;48.816;9.154;2022-08-19T13:58:43;29.30;;;26.15;;
8458;SDS011;4266;48.816;9.154;2022-08-19T14:01:09;32.22;;;28.25;;
8458;SDS011;4266;48.816;9.154;2022-08-19T14:03:35;30.40;;;27.15;;
8458;SDS011;4266;48.816;9.154;2022-08-19T14:06:00;29.98;;;26.85;;
8458;SDS011;4266;48.816;9.154;2022-08-19T14:08:26;32.10;;;27.52;;
8458;SDS011;4266;48.816;9.154;2022-08-19T14:10:52;34.70;;;28.52;;
8458;SDS011;4266;48.816;9.154;2022-08-19T14:13:18;32.28;;;27.70;;
8458;SDS011;4266;48.816;9.154;2022-08-19T14:15:43;26.58;;;23.85;;
8458;SDS011;4266;48.816;9.154;2022-08-19T14:18:10;29.92;;;24.98;;
8458;SDS011;4266;48.816;9.154;2022-08-19T14:20:36;29.45;;;26.12;;
8458;SDS011;4266;48.816;9.154;2022-08-19T14:23:02;30.80;;;25.00;;
8458;SDS011;4266;48.816;9.154;2022-08-19T14:25:28;32.05;;;26.30;;
8458;SDS011;4266;48.816;9.154;2022-08-19T14:27:53;26.23;;;22.95;;
8458;SDS011;4266;48.816;9.154;2022-08-19T14:30:22;26.02;;;22.83;;
8458;SDS011;4266;48.816;9.154;2022-08-19T14:32:45;25.95;;;23.02;;
8458;SDS011;4266;48.816;9.154;2022-08-19T14:35:12;29.10;;;23.38;;
8458;SDS011;4266;48.816;9.154;2022-08-19T14:37:38;24.85;;;22.35;;
8458;SDS011;4266;48.816;9.154;2022-08-19T14:40:04;24.17;;;21.65;;
8458;SDS011;4266;48.816;9.154;2022-08-19T14:42:31;23.48;;;21.15;;
8458;SDS011;4266;48.816;9.154;2022-08-19T14:44:57;24.05;;;21.58;;